createdAt,value
2018-03-21T00:02:19.134Z,8.00
2018-03-21T00:04:48.597Z,6.47
2018-03-21T00:07:18.022Z,10.85
2018-03-21T00:09:48.412Z,9.43
2018-03-21T00:12:18.148Z,9.10
2018-03-21T00:14:48.025Z,9.63
2018-03-21T00:17:17.517Z,8.55
2018-03-21T00:19:48.974Z,6.78
2018-03-21T00:22:27.976Z,6.70
2018-03-21T00:24:57.389Z,10.45
2018-03-21T00:27:27.216Z,9.38
2018-03-21T00:29:56.650Z,8.38
2018-03-21T00:32:26.091Z,9.32
2018-03-21T00:34:55.545Z,8.60
2018-03-21T00:37:25.026Z,9.93
2018-03-21T00:39:54.763Z,8.73
2018-03-21T00:42:24.197Z,11.20
2018-03-21T00:44:53.634Z,8.15
2018-03-21T00:47:23.149Z,8.38
2018-03-21T00:49:52.960Z,6.80
2018-03-21T00:52:22.481Z,9.73
2018-03-21T00:54:52.288Z,9.00
2018-03-21T00:57:21.789Z,7.87
2018-03-21T00:59:51.214Z,9.48
2018-03-21T01:02:20.644Z,6.47
2018-03-21T01:04:50.101Z,11.02
2018-03-21T01:07:19.537Z,12.07
2018-03-21T01:09:49.032Z,11.12
2018-03-21T01:12:19.375Z,7.85
2018-03-21T01:14:49.655Z,8.77
2018-03-21T01:17:19.089Z,9.50
2018-03-21T01:19:49.223Z,9.05
2018-03-21T01:22:31.261Z,10.40
2018-03-21T01:25:00.874Z,8.45
2018-03-21T01:27:30.293Z,9.23
2018-03-21T01:29:59.742Z,11.38
2018-03-21T01:32:29.178Z,7.28
2018-03-21T01:34:59.059Z,13.23
2018-03-21T01:37:28.494Z,11.95
2018-03-21T01:39:57.917Z,9.38
2018-03-21T01:42:27.382Z,9.13
2018-03-21T01:44:57.216Z,6.97
2018-03-21T01:47:26.925Z,8.80
2018-03-21T01:49:56.434Z,8.40
2018-03-21T01:52:26.275Z,9.90
2018-03-21T01:54:56.324Z,8.73
2018-03-21T01:57:26.235Z,7.75
2018-03-21T01:59:55.948Z,8.43
2018-03-21T02:02:25.372Z,8.70
2018-03-21T02:04:54.797Z,9.27
2018-03-21T02:07:24.658Z,9.65
2018-03-21T02:09:54.576Z,10.25
2018-03-21T02:12:24.504Z,10.68
2018-03-21T02:14:53.936Z,9.00
2018-03-21T02:17:23.368Z,8.68
2018-03-21T02:19:53.440Z,9.00
2018-03-21T02:22:34.228Z,8.25
2018-03-21T02:25:03.838Z,8.73
2018-03-21T02:27:33.270Z,11.88
2018-03-21T02:30:02.718Z,11.50
2018-03-21T02:32:32.641Z,10.07
2018-03-21T02:35:02.068Z,9.18
2018-03-21T02:37:31.501Z,11.48
2018-03-21T02:40:00.954Z,8.02
2018-03-21T02:42:30.398Z,7.70
2018-03-21T02:45:00.594Z,8.48
2018-03-21T02:47:30.509Z,9.88
2018-03-21T02:50:00.426Z,11.05
2018-03-21T02:52:30.335Z,11.07
2018-03-21T02:55:00.005Z,9.02
2018-03-21T02:57:29.680Z,10.13
2018-03-21T02:59:59.113Z,8.90
2018-03-21T03:02:28.562Z,9.35
2018-03-21T03:04:58.027Z,9.35
2018-03-21T03:07:27.453Z,11.32
2018-03-21T03:09:57.270Z,11.57
2018-03-21T03:12:27.285Z,7.93
2018-03-21T03:14:56.717Z,10.82
2018-03-21T03:17:26.140Z,9.38
2018-03-21T03:19:55.924Z,9.15
2018-03-21T03:25:06.852Z,9.07
2018-03-21T03:27:36.285Z,12.07
2018-03-21T03:30:06.030Z,12.68
2018-03-21T03:32:35.740Z,10.27
2018-03-21T03:35:05.177Z,12.20
2018-03-21T03:37:34.595Z,6.90
2018-03-21T03:40:04.048Z,8.18
2018-03-21T03:42:33.473Z,11.18
2018-03-21T03:45:03.273Z,7.32
2018-03-21T03:47:33.181Z,10.15
2018-03-21T03:50:03.301Z,11.00
2018-03-21T03:52:33.030Z,10.93
2018-03-21T03:55:02.926Z,9.27
2018-03-21T03:57:32.436Z,11.80
2018-03-21T04:00:02.375Z,9.38
2018-03-21T04:02:31.804Z,8.13
2018-03-21T04:05:01.284Z,10.02
2018-03-21T04:07:31.280Z,12.70
2018-03-21T04:10:00.708Z,9.73
2018-03-21T04:12:30.896Z,8.38
2018-03-21T04:15:00.332Z,11.88
2018-03-21T04:17:29.913Z,11.68
2018-03-21T04:19:59.489Z,7.28
2018-03-21T04:22:40.257Z,11.57
2018-03-21T04:25:10.084Z,8.27
2018-03-21T04:27:40.042Z,10.55
2018-03-21T04:30:09.480Z,8.80
2018-03-21T04:32:38.904Z,10.48
2018-03-21T04:35:08.574Z,10.75
2018-03-21T04:37:38.001Z,8.75
2018-03-21T04:40:07.908Z,13.70
2018-03-21T04:42:37.360Z,6.57
2018-03-21T04:45:06.797Z,10.40
2018-03-21T04:47:36.536Z,6.60
2018-03-21T04:50:06.256Z,10.48
2018-03-21T04:52:35.903Z,9.02
2018-03-21T04:55:05.411Z,7.12
2018-03-21T04:57:36.045Z,6.85
2018-03-21T05:00:05.475Z,8.77
2018-03-21T05:02:35.355Z,8.80
2018-03-21T05:05:04.884Z,12.18
2018-03-21T05:07:34.316Z,9.27
2018-03-21T05:10:03.761Z,8.98
2018-03-21T05:12:33.469Z,8.70
2018-03-21T05:15:02.902Z,9.70
2018-03-21T05:17:33.320Z,7.20
2018-03-21T05:20:02.830Z,8.52
2018-03-21T05:22:43.404Z,9.98
2018-03-21T05:25:13.163Z,10.13
2018-03-21T05:27:42.600Z,10.52
2018-03-21T05:30:12.039Z,8.75
2018-03-21T05:32:41.813Z,7.65
2018-03-21T05:35:11.236Z,7.62
2018-03-21T05:37:40.653Z,7.10
2018-03-21T05:40:10.373Z,8.07
2018-03-21T05:42:39.799Z,7.32
2018-03-21T05:45:09.233Z,7.15
2018-03-21T05:47:39.581Z,7.55
2018-03-21T05:50:09.090Z,6.95
2018-03-21T05:52:38.796Z,10.98
2018-03-21T05:55:08.608Z,6.93
2018-03-21T05:57:38.108Z,7.47
2018-03-21T06:00:07.536Z,8.98
2018-03-21T06:02:37.066Z,8.60
2018-03-21T06:05:06.923Z,10.40
2018-03-21T06:07:36.361Z,5.20
2018-03-21T06:10:05.796Z,7.18
2018-03-21T06:12:35.290Z,9.27
2018-03-21T06:15:04.741Z,7.97
2018-03-21T06:17:34.594Z,8.48
2018-03-21T06:20:04.481Z,6.87
2018-03-21T06:22:45.590Z,7.68
2018-03-21T06:25:15.028Z,5.60
2018-03-21T06:27:44.464Z,5.68
2018-03-21T06:30:13.948Z,8.32
2018-03-21T06:32:43.357Z,9.15
2018-03-21T06:35:13.185Z,8.68
2018-03-21T06:37:42.624Z,7.97
2018-03-21T06:40:12.061Z,9.05
2018-03-21T06:42:41.507Z,7.95
2018-03-21T06:45:11.547Z,13.05
2018-03-21T06:47:41.090Z,7.30
2018-03-21T06:50:10.584Z,7.87
2018-03-21T06:52:40.247Z,7.63
2018-03-21T06:55:09.766Z,8.40
2018-03-21T06:57:39.467Z,10.90
2018-03-21T07:00:09.005Z,10.10
2018-03-21T07:02:38.425Z,12.20
2018-03-21T07:05:08.194Z,10.23
2018-03-21T07:07:37.667Z,6.40
2018-03-21T07:10:07.050Z,7.20
2018-03-21T07:12:36.842Z,8.43
2018-03-21T07:15:11.957Z,10.60
2018-03-21T07:17:41.480Z,8.63
2018-03-21T07:20:11.970Z,7.90
2018-03-21T07:22:49.326Z,7.63
2018-03-21T07:25:18.733Z,7.27
2018-03-21T07:27:48.155Z,8.43
2018-03-21T07:30:17.593Z,11.00
2018-03-21T07:32:47.021Z,9.57
2018-03-21T07:35:16.552Z,10.20
2018-03-21T07:37:45.990Z,7.57
2018-03-21T07:40:15.421Z,7.13
2018-03-21T07:42:44.964Z,6.40
2018-03-21T07:45:14.386Z,9.43
2018-03-21T07:47:44.113Z,6.60
2018-03-21T07:50:13.883Z,8.60
2018-03-21T07:52:43.648Z,10.50
2018-03-21T07:55:13.074Z,6.90
2018-03-21T07:57:43.261Z,8.70
2018-03-21T08:00:12.686Z,5.80
2018-03-21T08:02:42.128Z,6.63
2018-03-21T08:05:11.892Z,7.20
2018-03-21T08:07:41.809Z,7.67
2018-03-21T08:10:11.240Z,5.57
2018-03-21T08:12:41.025Z,6.90
2018-03-21T08:15:10.479Z,7.90
2018-03-21T08:17:39.977Z,9.10
2018-03-21T08:20:09.885Z,7.50
2018-03-21T08:22:51.601Z,7.10
2018-03-21T08:25:21.316Z,6.80
2018-03-21T08:27:50.757Z,8.70
2018-03-21T08:30:20.258Z,6.67
2018-03-21T08:32:49.660Z,8.50
2018-03-21T08:35:19.170Z,5.83
2018-03-21T08:37:48.575Z,5.67
2018-03-21T08:40:18.019Z,6.00
2018-03-21T08:42:47.858Z,7.37
2018-03-21T08:45:17.297Z,9.57
2018-03-21T08:47:46.717Z,7.10
2018-03-21T08:50:16.211Z,8.60
2018-03-21T08:52:45.988Z,5.97
2018-03-21T08:55:15.412Z,6.97
2018-03-21T08:57:45.077Z,7.20
2018-03-21T09:00:14.609Z,6.10
2018-03-21T09:02:44.042Z,6.47
2018-03-21T09:05:13.918Z,6.73
2018-03-21T09:07:43.336Z,5.83
2018-03-21T09:10:12.761Z,7.03
2018-03-21T09:12:42.422Z,5.90
2018-03-21T09:15:12.928Z,5.20
2018-03-21T09:17:42.709Z,5.50
2018-03-21T09:20:12.660Z,5.30
2018-03-21T09:22:54.400Z,5.03
2018-03-21T09:25:23.957Z,5.17
2018-03-21T09:27:53.390Z,5.10
2018-03-21T09:30:23.001Z,4.43
2018-03-21T09:32:52.386Z,5.47
2018-03-21T09:35:21.813Z,5.17
2018-03-21T09:37:54.217Z,5.20
2018-03-21T09:40:23.629Z,4.80
2018-03-21T09:42:53.054Z,5.13
2018-03-21T09:45:22.950Z,4.80
2018-03-21T09:47:52.377Z,5.63
2018-03-21T09:50:22.172Z,5.53
2018-03-21T09:52:52.287Z,5.70
2018-03-21T09:55:21.756Z,6.77
2018-03-21T09:57:51.506Z,4.60
2018-03-21T10:00:20.924Z,5.43
2018-03-21T10:02:50.392Z,6.00
2018-03-21T10:05:19.840Z,4.80
2018-03-21T10:07:49.258Z,5.67
2018-03-21T10:10:18.684Z,4.97
2018-03-21T10:12:48.449Z,4.60
2018-03-21T10:15:17.865Z,6.63
2018-03-21T10:17:47.643Z,5.30
2018-03-21T10:20:17.684Z,5.07
2018-03-21T10:22:57.309Z,5.30
2018-03-21T10:25:26.842Z,6.10
2018-03-21T10:27:56.486Z,4.03
2018-03-21T10:30:25.904Z,4.90
2018-03-21T10:32:55.332Z,4.57
2018-03-21T10:35:24.769Z,7.40
2018-03-21T10:37:54.187Z,8.57
2018-03-21T10:40:23.650Z,4.47
2018-03-21T10:42:53.098Z,4.70
2018-03-21T10:45:23.064Z,7.70
2018-03-21T10:47:52.487Z,6.80
2018-03-21T10:50:22.496Z,5.03
2018-03-21T10:52:52.369Z,5.10
2018-03-21T10:55:21.806Z,5.70
2018-03-21T10:57:51.645Z,6.70
2018-03-21T11:00:21.067Z,6.23
2018-03-21T11:02:56.144Z,6.50
2018-03-21T11:05:25.738Z,5.03
2018-03-21T11:07:55.187Z,8.40
2018-03-21T11:10:24.903Z,3.73
2018-03-21T11:12:54.420Z,4.00
2018-03-21T11:15:23.845Z,5.50
2018-03-21T11:17:53.630Z,5.83
2018-03-21T11:20:28.857Z,4.30
2018-03-21T11:23:00.665Z,5.17
2018-03-21T11:25:30.095Z,4.53
2018-03-21T11:28:01.985Z,4.07
2018-03-21T11:30:31.800Z,4.50
2018-03-21T11:33:01.225Z,5.03
2018-03-21T11:35:30.649Z,4.00
2018-03-21T11:38:00.611Z,4.50
2018-03-21T11:40:30.009Z,3.13
2018-03-21T11:43:05.482Z,4.50
2018-03-21T11:45:34.925Z,4.50
2018-03-21T11:48:04.347Z,4.20
2018-03-21T11:50:34.005Z,4.10
2018-03-21T11:53:03.705Z,5.60
2018-03-21T11:55:38.704Z,4.10
2018-03-21T11:58:08.301Z,3.37
2018-03-21T12:00:37.750Z,3.27
2018-03-21T12:03:13.518Z,7.23
2018-03-21T12:05:42.943Z,3.03
2018-03-21T12:08:12.837Z,3.00
2018-03-21T12:10:42.821Z,3.70
2018-03-21T12:13:12.246Z,3.87
2018-03-21T12:15:41.665Z,4.33
2018-03-21T12:18:11.269Z,3.20
2018-03-21T12:20:40.953Z,3.73
2018-03-21T12:23:10.821Z,2.77
2018-03-21T12:25:40.254Z,3.07
2018-03-21T12:28:09.684Z,4.27
2018-03-21T12:30:39.965Z,3.10
2018-03-21T12:33:09.389Z,2.83
2018-03-21T12:35:38.813Z,4.57
2018-03-21T12:38:08.270Z,3.30
2018-03-21T12:40:37.718Z,5.47
2018-03-21T12:43:07.560Z,2.90
2018-03-21T12:45:37.017Z,4.07
2018-03-21T12:48:06.432Z,3.47
2018-03-21T12:50:35.980Z,4.67
2018-03-21T12:53:05.877Z,3.00
2018-03-21T12:55:35.375Z,2.90
2018-03-21T12:58:04.791Z,2.10
2018-03-21T13:00:34.212Z,4.93
2018-03-21T13:03:04.553Z,3.63
2018-03-21T13:05:34.421Z,2.30
2018-03-21T13:08:03.856Z,11.40
2018-03-21T13:10:39.726Z,2.57
2018-03-21T13:13:09.146Z,3.50
2018-03-21T13:15:38.585Z,2.97
2018-03-21T13:18:08.130Z,4.53
2018-03-21T13:20:37.692Z,3.53
2018-03-21T13:23:07.590Z,2.33
2018-03-21T13:25:37.072Z,3.07
2018-03-21T13:28:06.876Z,2.07
2018-03-21T13:30:36.813Z,2.70
2018-03-21T13:33:06.237Z,4.10
2018-03-21T13:35:35.656Z,3.40
2018-03-21T13:38:05.278Z,2.67
2018-03-21T13:40:34.703Z,4.03
2018-03-21T13:43:04.773Z,3.33
2018-03-21T13:45:34.193Z,4.10
2018-03-21T13:48:03.618Z,2.73
2018-03-21T13:50:33.652Z,2.60
2018-03-21T13:53:03.676Z,3.00
2018-03-21T13:55:33.104Z,4.70
2018-03-21T13:58:02.984Z,3.30
2018-03-21T14:00:32.401Z,4.53
2018-03-21T14:03:02.178Z,3.37
2018-03-21T14:05:31.703Z,3.30
2018-03-21T14:08:01.121Z,2.80
2018-03-21T14:10:30.547Z,6.50
2018-03-21T14:13:00.076Z,2.77
2018-03-21T14:15:29.733Z,2.63
2018-03-21T14:17:59.417Z,3.43
2018-03-21T14:20:29.154Z,3.43
2018-03-21T14:23:09.205Z,3.87
2018-03-21T14:25:39.236Z,2.77
2018-03-21T14:28:08.662Z,3.13
2018-03-21T14:30:38.841Z,4.10
2018-03-21T14:33:08.600Z,2.70
2018-03-21T14:35:38.984Z,3.10
2018-03-21T14:38:09.091Z,4.47
2018-03-21T14:40:38.500Z,3.63
2018-03-21T14:43:07.943Z,4.00
2018-03-21T14:45:37.367Z,4.63
2018-03-21T14:48:06.800Z,6.13
2018-03-21T14:50:36.544Z,8.37
2018-03-21T14:53:06.561Z,2.83
2018-03-21T14:55:35.996Z,6.17
2018-03-21T14:58:05.751Z,2.90
2018-03-21T15:00:35.479Z,3.33
2018-03-21T15:03:04.905Z,3.23
2018-03-21T15:05:34.493Z,5.33
2018-03-21T15:08:04.037Z,4.70
2018-03-21T15:13:08.489Z,2.77
2018-03-21T15:15:37.996Z,5.40
2018-03-21T15:18:07.571Z,3.33
2018-03-21T15:20:37.441Z,2.90
2018-03-21T15:23:12.717Z,4.93
2018-03-21T15:25:42.413Z,3.37
2018-03-21T15:28:11.843Z,10.47
2018-03-21T15:30:41.472Z,4.20
2018-03-21T15:33:10.921Z,2.97
2018-03-21T15:35:40.401Z,3.93
2018-03-21T15:38:09.833Z,3.90
2018-03-21T15:40:39.740Z,3.37
2018-03-21T15:43:09.189Z,4.03
2018-03-21T15:45:38.874Z,6.80
2018-03-21T15:48:08.289Z,3.40
2018-03-21T15:50:38.302Z,3.87
2018-03-21T15:53:08.081Z,3.83
2018-03-21T15:55:37.526Z,3.37
2018-03-21T15:58:07.237Z,2.80
2018-03-21T16:00:36.658Z,3.13
2018-03-21T16:05:41.369Z,3.23
2018-03-21T16:08:10.781Z,3.20
2018-03-21T16:10:41.437Z,5.53
2018-03-21T16:13:10.869Z,5.87
2018-03-21T16:15:40.296Z,3.57
2018-03-21T16:18:10.356Z,3.20
2018-03-21T16:20:40.035Z,4.87
2018-03-21T16:23:16.142Z,3.40
2018-03-21T16:25:45.576Z,4.10
2018-03-21T16:28:15.038Z,4.10
2018-03-21T16:30:44.626Z,3.33
2018-03-21T16:33:14.374Z,3.10
2018-03-21T16:35:43.789Z,4.50
2018-03-21T16:38:13.233Z,3.30
2018-03-21T16:40:42.746Z,4.50
2018-03-21T16:43:12.196Z,3.13
2018-03-21T16:45:41.717Z,3.90
2018-03-21T16:48:11.142Z,3.33
2018-03-21T16:50:49.167Z,6.00
2018-03-21T16:53:18.666Z,4.33
2018-03-21T16:55:48.269Z,3.50
2018-03-21T16:58:17.791Z,3.97
2018-03-21T17:00:47.204Z,2.60
2018-03-21T17:03:16.913Z,3.30
2018-03-21T17:05:46.354Z,4.17
2018-03-21T17:08:15.772Z,3.70
2018-03-21T17:10:50.751Z,3.20
2018-03-21T17:13:20.190Z,4.60
2018-03-21T17:15:49.736Z,3.57
2018-03-21T17:18:19.897Z,3.97
2018-03-21T17:20:49.586Z,5.53
2018-03-21T17:23:21.556Z,3.53
2018-03-21T17:25:50.970Z,5.27
2018-03-21T17:28:20.404Z,4.67
2018-03-21T17:30:49.961Z,5.27
2018-03-21T17:33:20.297Z,5.03
2018-03-21T17:35:49.733Z,4.63
2018-03-21T17:38:19.191Z,4.10
2018-03-21T17:40:49.220Z,4.30
2018-03-21T17:43:18.969Z,7.80
2018-03-21T17:45:54.976Z,4.30
2018-03-21T17:48:30.542Z,5.40
2018-03-21T17:51:00.081Z,5.77
2018-03-21T17:53:29.733Z,4.57
2018-03-21T17:55:59.249Z,6.40
2018-03-21T17:58:28.923Z,3.43
2018-03-21T18:00:58.360Z,3.63
2018-03-21T18:03:28.213Z,2.47
2018-03-21T18:05:57.670Z,3.93
2018-03-21T18:08:27.202Z,5.40
2018-03-21T18:10:57.141Z,5.37
2018-03-21T18:13:27.002Z,6.33
2018-03-21T18:15:56.972Z,4.60
2018-03-21T18:18:26.556Z,4.23
2018-03-21T18:20:56.153Z,4.77
2018-03-21T18:23:25.880Z,4.00
2018-03-21T18:25:55.427Z,4.03
2018-03-21T18:28:24.860Z,6.13
2018-03-21T18:30:54.289Z,8.03
2018-03-21T18:33:23.728Z,5.43
2018-03-21T18:35:53.576Z,5.60
2018-03-21T18:38:22.997Z,3.87
2018-03-21T18:40:52.448Z,4.60
2018-03-21T18:43:22.370Z,5.27
2018-03-21T18:45:51.784Z,2.63
2018-03-21T18:48:21.213Z,3.87
2018-03-21T18:50:51.076Z,4.17
2018-03-21T18:53:21.201Z,3.03
2018-03-21T18:55:51.253Z,5.97
2018-03-21T18:58:21.028Z,5.77
2018-03-21T19:00:50.460Z,4.43
2018-03-21T19:03:20.250Z,5.20
2018-03-21T19:05:49.677Z,5.30
2018-03-21T19:08:19.093Z,6.60
2018-03-21T19:10:48.848Z,10.40
2018-03-21T19:13:20.302Z,8.10
2018-03-21T19:15:48.352Z,7.57
2018-03-21T19:18:18.170Z,10.10
2018-03-21T19:20:48.141Z,6.63
2018-03-21T19:23:23.819Z,7.07
2018-03-21T19:25:53.215Z,8.47
2018-03-21T19:28:22.951Z,6.57
2018-03-21T19:30:52.410Z,8.97
2018-03-21T19:33:21.840Z,4.77
2018-03-21T19:35:51.912Z,6.33
2018-03-21T19:38:21.356Z,6.60
2018-03-21T19:40:51.510Z,7.50
2018-03-21T19:43:21.217Z,5.40
2018-03-21T19:45:51.051Z,6.00
2018-03-21T19:48:21.071Z,8.27
2018-03-21T19:50:50.628Z,7.63
2018-03-21T19:53:20.273Z,6.50
2018-03-21T19:55:49.984Z,5.50
2018-03-21T19:58:19.981Z,6.20
2018-03-21T20:00:49.430Z,7.63
2018-03-21T20:03:19.381Z,5.47
2018-03-21T20:05:49.501Z,11.10
2018-03-21T20:08:19.275Z,5.50
2018-03-21T20:10:48.960Z,4.73
2018-03-21T20:13:18.388Z,6.97
2018-03-21T20:15:47.812Z,6.43
2018-03-21T20:18:17.484Z,5.97
2018-03-21T20:20:47.601Z,8.20
2018-03-21T20:23:27.113Z,7.07
2018-03-21T20:25:57.772Z,6.60
2018-03-21T20:28:27.201Z,9.13
2018-03-21T20:30:56.631Z,7.37
2018-03-21T20:33:26.084Z,7.30
2018-03-21T20:35:55.684Z,9.07
2018-03-21T20:38:25.198Z,7.00
2018-03-21T20:40:55.025Z,9.23
2018-03-21T20:43:24.779Z,10.70
2018-03-21T20:45:55.166Z,6.20
2018-03-21T20:48:24.596Z,10.50
2018-03-21T20:50:54.655Z,5.07
2018-03-21T20:53:24.488Z,6.73
2018-03-21T20:55:55.229Z,6.70
2018-03-21T20:58:25.169Z,7.63
2018-03-21T21:00:54.592Z,9.30
2018-03-21T21:03:24.333Z,10.37
2018-03-21T21:05:53.766Z,8.20
2018-03-21T21:08:23.644Z,14.47
2018-03-21T21:10:53.361Z,7.60
2018-03-21T21:13:22.788Z,9.53
2018-03-21T21:15:52.208Z,8.43
2018-03-21T21:18:22.034Z,7.20
2018-03-21T21:20:51.529Z,10.47
2018-03-21T21:23:29.889Z,8.10
2018-03-21T21:25:59.359Z,7.72
2018-03-21T21:28:28.748Z,8.95
2018-03-21T21:30:58.197Z,8.93
2018-03-21T21:33:27.670Z,9.13
2018-03-21T21:35:57.117Z,7.60
2018-03-21T21:38:26.547Z,6.87
2018-03-21T21:40:55.981Z,6.30
2018-03-21T21:43:26.279Z,8.38
2018-03-21T21:45:55.717Z,9.00
2018-03-21T21:48:25.165Z,10.05
2018-03-21T21:50:55.575Z,15.23
2018-03-21T21:53:25.338Z,8.77
2018-03-21T21:55:54.817Z,7.32
2018-03-21T21:58:24.309Z,9.32
2018-03-21T22:00:53.753Z,6.53
2018-03-21T22:03:23.362Z,10.40
2018-03-21T22:05:53.163Z,9.15
2018-03-21T22:08:22.605Z,12.80
2018-03-21T22:10:52.566Z,7.90
2018-03-21T22:13:22.001Z,7.95
2018-03-21T22:15:51.429Z,11.65
2018-03-21T22:18:20.962Z,11.68
2018-03-21T22:20:50.817Z,11.90
2018-03-21T22:23:32.649Z,12.57
2018-03-21T22:26:02.644Z,7.22
2018-03-21T22:28:32.075Z,7.05
2018-03-21T22:31:01.905Z,6.95
2018-03-21T22:33:31.877Z,9.20
2018-03-21T22:36:01.819Z,16.33
2018-03-21T22:38:31.704Z,4.70
2018-03-21T22:41:01.662Z,7.20
2018-03-21T22:43:31.497Z,12.48
2018-03-21T22:46:01.285Z,7.45
2018-03-21T22:51:06.568Z,9.60
2018-03-21T22:53:36.344Z,9.55
2018-03-21T22:56:06.328Z,5.57
2018-03-21T22:58:36.561Z,7.43
2018-03-21T23:01:06.325Z,5.43
2018-03-21T23:03:36.203Z,13.23
2018-03-21T23:06:05.655Z,10.00
2018-03-21T23:08:35.103Z,11.15
2018-03-21T23:11:04.952Z,6.97
2018-03-21T23:13:34.374Z,6.72
2018-03-21T23:16:08.263Z,10.18
2018-03-21T23:18:37.688Z,6.18
2018-03-21T23:21:07.442Z,10.35
2018-03-21T23:23:37.251Z,10.35
2018-03-21T23:26:07.107Z,8.77
2018-03-21T23:28:36.536Z,7.07
2018-03-21T23:31:05.957Z,9.23
2018-03-21T23:33:35.488Z,9.68
2018-03-21T23:36:04.912Z,6.97
2018-03-21T23:38:35.015Z,5.65
2018-03-21T23:41:04.614Z,8.63
2018-03-21T23:43:34.065Z,9.98
2018-03-21T23:46:03.606Z,5.80
2018-03-21T23:48:33.047Z,5.18
2018-03-21T23:51:02.883Z,7.72
2018-03-21T23:53:33.277Z,6.60
2018-03-21T23:56:02.714Z,8.48
2018-03-21T23:58:32.888Z,6.95
